createdAt,value
2022-12-26T00:01:22.405Z,100708.66
2022-12-26T00:03:48.940Z,100721.38
2022-12-26T00:06:19.571Z,100713.22
2022-12-26T00:08:46.050Z,100721.38
2022-12-26T00:11:12.787Z,100718.66
2022-12-26T00:13:42.635Z,100725.97
2022-12-26T00:16:09.121Z,100711.38
2022-12-26T00:18:35.531Z,100706.94
2022-12-26T00:21:01.900Z,100701.50
2022-12-26T00:23:28.293Z,100704.41
2022-12-26T00:25:54.692Z,100704.22
2022-12-26T00:28:21.088Z,100698.75
2022-12-26T00:30:47.477Z,100695.19
2022-12-26T00:33:13.846Z,100688.72
2022-12-26T00:35:40.187Z,100666.94
2022-12-26T00:38:07.856Z,100660.66
2022-12-26T00:40:34.248Z,100654.38
2022-12-26T00:43:00.644Z,100665.25
2022-12-26T00:45:27.044Z,100658.97
2022-12-26T00:47:53.411Z,100670.91
2022-12-26T00:50:19.825Z,100660.84
2022-12-26T00:52:46.203Z,100649.97
2022-12-26T00:55:12.553Z,100639.06
2022-12-26T00:57:38.967Z,100657.28
2022-12-26T01:00:05.691Z,100652.69
2022-12-26T01:02:38.398Z,100655.41
2022-12-26T01:05:08.908Z,100653.53
2022-12-26T01:08:20.281Z,100648.09
2022-12-26T01:10:22.876Z,100636.34
2022-12-26T01:12:49.207Z,100627.34
2022-12-26T01:15:15.564Z,100626.50
2022-12-26T01:17:41.978Z,100621.06
2022-12-26T01:20:08.578Z,100621.91
2022-12-26T01:22:35.081Z,100633.84
2022-12-26T01:25:01.435Z,100623.78
2022-12-26T01:27:27.878Z,100634.69
2022-12-26T01:29:54.704Z,100619.19
2022-12-26T01:32:21.099Z,100620.22
2022-12-26T01:34:47.523Z,100633.84
2022-12-26T01:37:14.569Z,100630.06
2022-12-26T01:39:40.963Z,100608.28
2022-12-26T01:42:14.149Z,100632.78
2022-12-26T01:44:59.135Z,100615.63
2022-12-26T01:47:30.327Z,100609.34
2022-12-26T01:49:56.753Z,100614.78
2022-12-26T01:52:30.151Z,100611.19
2022-12-26T01:54:56.713Z,100604.72
2022-12-26T01:57:27.040Z,100606.63
2022-12-26T01:59:55.487Z,100600.31
2022-12-26T02:02:22.744Z,100599.28
2022-12-26T02:05:09.783Z,100599.28
2022-12-26T02:07:38.037Z,100595.72
2022-12-26T02:10:07.589Z,100600.31
2022-12-26T02:12:38.859Z,100594.00
2022-12-26T02:15:10.310Z,100585.84
2022-12-26T02:17:37.518Z,100586.69
2022-12-26T02:20:04.601Z,100593.84
2022-12-26T02:22:34.098Z,100590.28
2022-12-26T02:25:17.774Z,100582.13
2022-12-26T02:27:50.363Z,100567.63
2022-12-26T02:30:26.367Z,100583.97
2022-12-26T02:33:05.102Z,100573.94
2022-12-26T02:35:31.536Z,100585.69
2022-12-26T02:37:57.860Z,100582.13
2022-12-26T02:40:43.083Z,100590.28
2022-12-26T02:43:21.154Z,100580.41
2022-12-26T02:46:13.321Z,100583.13
2022-12-26T02:48:58.636Z,100583.13
2022-12-26T02:51:43.847Z,100579.41
2022-12-26T02:54:28.766Z,100572.25
2022-12-26T02:57:16.853Z,100569.53
2022-12-26T03:00:04.816Z,100575.81
2022-12-26T03:02:52.875Z,100572.25
2022-12-26T03:05:46.040Z,100579.56
2022-12-26T03:08:35.284Z,100570.34
2022-12-26T03:11:20.181Z,100564.91
2022-12-26T03:13:49.017Z,100567.84
2022-12-26T03:16:34.640Z,100570.56
2022-12-26T03:19:03.676Z,100579.56
2022-12-26T03:21:33.933Z,100578.72
2022-12-26T03:24:00.300Z,100579.56
2022-12-26T03:26:42.137Z,100580.41
2022-12-26T03:29:28.897Z,100578.53
2022-12-26T03:31:55.688Z,100576.69
2022-12-26T03:34:22.489Z,100576.69
2022-12-26T03:36:48.811Z,100576.69
2022-12-26T03:39:15.268Z,100587.38
2022-12-26T03:42:21.050Z,100591.97
2022-12-26T03:45:12.109Z,100581.91
2022-12-26T03:48:05.622Z,100591.97
2022-12-26T03:50:54.205Z,100595.53
2022-12-26T03:53:45.612Z,100571.88
2022-12-26T03:56:35.566Z,100578.16
2022-12-26T03:59:24.923Z,100582.75
2022-12-26T04:02:10.987Z,100594.31
2022-12-26T04:04:58.317Z,100595.31
2022-12-26T04:07:55.818Z,100595.31
2022-12-26T04:10:56.367Z,100595.31
2022-12-26T04:14:13.782Z,100587.16
2022-12-26T04:16:58.779Z,100586.31
2022-12-26T04:19:28.011Z,100616.25
2022-12-26T04:22:25.759Z,100613.53
2022-12-26T04:25:16.879Z,100606.22
2022-12-26T04:28:02.240Z,100601.59
2022-12-26T04:30:48.249Z,100603.50
2022-12-26T04:33:37.547Z,100604.34
2022-12-26T04:36:28.609Z,100601.59
2022-12-26T04:39:15.903Z,100606.22
2022-12-26T04:42:01.766Z,100609.78
2022-12-26T04:44:28.883Z,100600.59
2022-12-26T04:46:55.990Z,100601.44
2022-12-26T04:49:41.197Z,100608.56
2022-12-26T04:52:09.755Z,100612.13
2022-12-26T04:54:36.103Z,100615.91
2022-12-26T04:57:02.591Z,100621.97
2022-12-26T04:59:29.028Z,100623.69
2022-12-26T05:02:14.126Z,100621.81
2022-12-26T05:04:59.300Z,100628.09
2022-12-26T05:07:47.014Z,100618.88
2022-12-26T05:10:16.831Z,100627.75
2022-12-26T05:12:43.340Z,100634.03
2022-12-26T05:15:10.650Z,100632.16
2022-12-26T05:17:55.988Z,100629.44
2022-12-26T05:20:41.282Z,100625.88
2022-12-26T05:23:40.056Z,100622.94
2022-12-26T05:26:27.988Z,100621.28
2022-12-26T05:28:56.686Z,100631.13
2022-12-26T05:31:23.135Z,100622.94
2022-12-26T05:34:08.396Z,100632.81
2022-12-26T05:36:37.406Z,100630.91
2022-12-26T05:39:04.378Z,100642.47
2022-12-26T05:41:30.784Z,100635.16
2022-12-26T05:43:57.149Z,100634.97
2022-12-26T05:46:23.559Z,100640.59
2022-12-26T05:48:50.062Z,100644.16
2022-12-26T05:51:16.538Z,100645.00
2022-12-26T05:53:42.891Z,100646.88
2022-12-26T05:56:13.396Z,100660.50
2022-12-26T05:58:40.353Z,100655.06
2022-12-26T06:01:08.786Z,100660.50
2022-12-26T06:03:35.789Z,100656.09
2022-12-26T06:06:02.203Z,100649.59
2022-12-26T06:08:28.747Z,100652.34
2022-12-26T06:10:55.096Z,100649.81
2022-12-26T06:13:21.524Z,100664.25
2022-12-26T06:15:47.916Z,100673.47
2022-12-26T06:18:14.310Z,100670.75
2022-12-26T06:20:40.967Z,100678.06
2022-12-26T06:23:07.366Z,100678.91
2022-12-26T06:25:33.749Z,100671.75
2022-12-26T06:28:00.126Z,100678.06
2022-12-26T06:30:26.518Z,100677.22
2022-12-26T06:32:52.919Z,100682.66
2022-12-26T06:35:19.335Z,100665.47
2022-12-26T06:37:45.742Z,100670.06
2022-12-26T06:40:12.214Z,100658.34
2022-12-26T06:42:38.684Z,100660.22
2022-12-26T06:45:05.309Z,100669.25
2022-12-26T06:47:31.710Z,100665.69
2022-12-26T06:49:58.103Z,100676.56
2022-12-26T06:52:24.485Z,100672.16
2022-12-26T06:54:50.869Z,100682.00
2022-12-26T06:57:17.250Z,100684.72
2022-12-26T06:59:43.608Z,100692.91
2022-12-26T07:02:11.114Z,100700.38
2022-12-26T07:04:37.600Z,100708.41
2022-12-26T07:07:04.076Z,100713.84
2022-12-26T07:09:33.820Z,100713.84
2022-12-26T07:12:00.355Z,100717.59
2022-12-26T07:14:26.818Z,100722.00
2022-12-26T07:16:53.258Z,100731.22
2022-12-26T07:19:19.685Z,100728.63
2022-12-26T07:21:46.070Z,100727.44
2022-12-26T07:24:19.901Z,100719.63
2022-12-26T07:26:47.086Z,100735.94
2022-12-26T07:29:14.120Z,100732.38
2022-12-26T07:31:40.619Z,100734.06
2022-12-26T07:34:07.055Z,100730.50
2022-12-26T07:36:33.647Z,100733.22
2022-12-26T07:39:00.021Z,100741.22
2022-12-26T07:41:45.041Z,100742.22
2022-12-26T07:44:11.672Z,100749.75
2022-12-26T07:46:38.217Z,100747.88
2022-12-26T07:49:07.463Z,100739.72
2022-12-26T07:51:34.111Z,100753.31
2022-12-26T07:54:03.178Z,100747.88
2022-12-26T07:56:33.763Z,100762.34
2022-12-26T07:59:00.280Z,100760.44
2022-12-26T08:01:27.260Z,100763.19
2022-12-26T08:03:53.868Z,100763.38
2022-12-26T08:06:20.658Z,100766.94
2022-12-26T08:08:51.022Z,100761.50
2022-12-26T08:11:19.044Z,100759.59
2022-12-26T08:13:45.490Z,100773.22
2022-12-26T08:16:13.030Z,100756.03
2022-12-26T08:18:39.566Z,100751.44
2022-12-26T08:21:06.157Z,100741.59
2022-12-26T08:23:33.288Z,100752.28
2022-12-26T08:26:03.756Z,100752.13
2022-12-26T08:28:30.151Z,100746.84
2022-12-26T08:30:56.552Z,100757.56
2022-12-26T08:33:22.976Z,100758.56
2022-12-26T08:35:49.425Z,100762.34
2022-12-26T08:38:15.749Z,100775.09
2022-12-26T08:40:43.534Z,100772.19
2022-12-26T08:46:02.410Z,100779.34
2022-12-26T08:48:29.168Z,100776.78
2022-12-26T08:50:56.652Z,100778.47
2022-12-26T08:53:22.995Z,100769.31
2022-12-26T08:55:49.403Z,100764.84
2022-12-26T08:58:15.768Z,100771.19
2022-12-26T09:00:42.270Z,100785.78
2022-12-26T09:03:08.716Z,100796.69
2022-12-26T09:05:35.147Z,100792.97
2022-12-26T09:08:01.714Z,100785.78
2022-12-26T09:10:28.060Z,100799.28
2022-12-26T09:12:54.450Z,100791.09
2022-12-26T09:15:20.803Z,100785.78
2022-12-26T09:17:47.326Z,100798.41
2022-12-26T09:20:13.683Z,100780.34
2022-12-26T09:22:52.296Z,100793.97
2022-12-26T09:25:19.756Z,100791.09
2022-12-26T09:27:46.361Z,100796.56
2022-12-26T09:30:12.985Z,100792.97
2022-12-26T09:32:39.374Z,100792.97
2022-12-26T09:35:06.506Z,100794.81
2022-12-26T09:37:33.009Z,100803.84
2022-12-26T09:39:59.403Z,100807.56
2022-12-26T09:42:39.255Z,100804.72
2022-12-26T09:45:14.264Z,100798.41
2022-12-26T09:47:40.628Z,100794.66
2022-12-26T09:50:10.387Z,100794.66
2022-12-26T09:52:36.819Z,100782.94
2022-12-26T09:55:07.485Z,100791.94
2022-12-26T09:57:42.431Z,100784.63
2022-12-26T10:00:17.948Z,100793.81
2022-12-26T10:02:46.764Z,100802.84
2022-12-26T10:05:13.752Z,100801.13
2022-12-26T10:07:48.946Z,100800.13
2022-12-26T10:10:29.104Z,100798.25
2022-12-26T10:12:55.555Z,100791.09
2022-12-26T10:15:24.790Z,100794.66
2022-12-26T10:18:04.991Z,100789.22
2022-12-26T10:20:43.934Z,100781.06
2022-12-26T10:23:25.914Z,100793.63
2022-12-26T10:25:56.849Z,100811.84
2022-12-26T10:28:36.650Z,100804.53
2022-12-26T10:31:06.449Z,100813.72
2022-12-26T10:33:45.442Z,100817.28
2022-12-26T10:36:16.375Z,100832.78
2022-12-26T10:38:44.987Z,100832.78
2022-12-26T10:41:14.246Z,100840.75
2022-12-26T10:43:44.798Z,100831.75
2022-12-26T10:46:40.790Z,100826.31
2022-12-26T10:49:11.702Z,100826.31
2022-12-26T10:51:38.486Z,100829.88
2022-12-26T10:54:10.965Z,100831.75
2022-12-26T10:56:38.156Z,100828.00
2022-12-26T10:59:04.941Z,100823.59
2022-12-26T11:01:32.475Z,100824.44
2022-12-26T11:04:00.259Z,100817.09
2022-12-26T11:06:47.534Z,100828.00
2022-12-26T11:09:25.790Z,100814.38
2022-12-26T11:11:54.345Z,100814.38
2022-12-26T11:14:31.754Z,100810.63
2022-12-26T11:17:02.507Z,100817.94
2022-12-26T11:19:33.771Z,100809.78
2022-12-26T11:22:14.761Z,100811.50
2022-12-26T11:24:41.191Z,100807.06
2022-12-26T11:27:25.874Z,100815.22
2022-12-26T11:30:10.006Z,100828.19
2022-12-26T11:32:36.777Z,100836.16
2022-12-26T11:35:03.387Z,100833.44
2022-12-26T11:37:37.005Z,100835.31
2022-12-26T11:40:04.787Z,100833.44
2022-12-26T11:42:31.246Z,100829.69
2022-12-26T11:45:01.183Z,100826.94
2022-12-26T11:47:28.900Z,100822.38
2022-12-26T11:50:00.382Z,100814.38
2022-12-26T11:52:39.291Z,100819.66
2022-12-26T11:55:24.290Z,100824.22
2022-12-26T11:58:08.753Z,100836.16
2022-12-26T12:00:40.490Z,100847.88
2022-12-26T12:03:14.703Z,100841.59
2022-12-26T12:05:50.101Z,100837.00
2022-12-26T12:08:31.911Z,100834.28
2022-12-26T12:10:58.280Z,100833.28
2022-12-26T12:13:24.650Z,100824.22
2022-12-26T12:16:06.987Z,100816.25
2022-12-26T12:18:52.271Z,100818.13
2022-12-26T12:21:27.734Z,100818.97
2022-12-26T12:23:54.159Z,100818.97
2022-12-26T12:26:31.080Z,100817.94
2022-12-26T12:29:03.735Z,100817.09
2022-12-26T12:31:42.516Z,100811.66
2022-12-26T12:34:11.653Z,100814.38
2022-12-26T12:36:51.064Z,100820.03
2022-12-26T12:39:25.710Z,100830.72
2022-12-26T12:41:54.962Z,100829.03
2022-12-26T12:44:26.187Z,100828.00
2022-12-26T12:47:05.388Z,100817.09
2022-12-26T12:49:50.833Z,100806.22
2022-12-26T12:52:29.408Z,100797.19
2022-12-26T12:55:16.032Z,100802.66
2022-12-26T12:57:45.715Z,100799.91
2022-12-26T13:00:23.533Z,100794.28
2022-12-26T13:02:58.615Z,100798.03
2022-12-26T13:05:37.426Z,100795.31
2022-12-26T13:08:11.229Z,100802.66
2022-12-26T13:10:42.685Z,100804.31
2022-12-26T13:13:16.024Z,100799.06
2022-12-26T13:15:46.967Z,100807.06
2022-12-26T13:18:22.991Z,100794.47
2022-12-26T13:21:10.408Z,100803.47
2022-12-26T13:24:07.137Z,100804.31
2022-12-26T13:26:42.614Z,100805.38
2022-12-26T13:29:16.876Z,100811.50
2022-12-26T13:31:44.415Z,100807.88
2022-12-26T13:34:15.151Z,100803.47
2022-12-26T13:36:52.903Z,100801.81
2022-12-26T13:39:19.265Z,100801.59
2022-12-26T13:42:24.347Z,100804.53
2022-12-26T13:44:53.536Z,100809.78
2022-12-26T13:47:39.461Z,100797.88
2022-12-26T13:50:24.381Z,100794.47
2022-12-26T13:52:50.836Z,100794.47
2022-12-26T13:55:17.189Z,100781.69
2022-12-26T13:57:45.104Z,100797.19
2022-12-26T14:00:19.441Z,100800.75
2022-12-26T14:05:44.483Z,100809.78
2022-12-26T14:08:33.897Z,100809.78
2022-12-26T14:11:06.376Z,100818.78
2022-12-26T14:13:55.065Z,100815.22
2022-12-26T14:16:30.532Z,100821.69
2022-12-26T14:19:04.321Z,100818.97
2022-12-26T14:21:39.890Z,100825.28
2022-12-26T14:24:12.440Z,100818.78
2022-12-26T14:26:54.268Z,100825.28
2022-12-26T14:29:39.217Z,100823.38
2022-12-26T14:32:24.063Z,100817.09
2022-12-26T14:35:08.787Z,100822.53
2022-12-26T14:37:41.287Z,100829.88
2022-12-26T14:40:07.869Z,100824.44
2022-12-26T14:43:12.614Z,100823.59
2022-12-26T14:45:40.046Z,100817.28
2022-12-26T14:48:15.742Z,100820.03
2022-12-26T14:50:45.169Z,100820.03
2022-12-26T14:53:20.644Z,100819.19
2022-12-26T14:55:50.373Z,100831.75
2022-12-26T14:58:28.833Z,100831.75
2022-12-26T15:00:56.301Z,100821.69
2022-12-26T15:03:25.875Z,100821.91
2022-12-26T15:05:55.684Z,100830.72
2022-12-26T15:08:22.144Z,100820.84
2022-12-26T15:10:57.731Z,100811.66
2022-12-26T15:13:30.118Z,100804.53
2022-12-26T15:16:03.149Z,100815.41
2022-12-26T15:18:34.363Z,100814.56
2022-12-26T15:21:22.940Z,100822.53
2022-12-26T15:24:07.937Z,100820.84
2022-12-26T15:26:52.737Z,100820.03
2022-12-26T15:29:22.197Z,100822.91
2022-12-26T15:32:07.107Z,100825.63
2022-12-26T15:34:36.534Z,100829.34
2022-12-26T15:37:09.443Z,100823.91
2022-12-26T15:39:35.813Z,100825.63
2022-12-26T15:42:20.441Z,100826.50
2022-12-26T15:44:46.837Z,100821.06
2022-12-26T15:47:36.631Z,100827.34
2022-12-26T15:50:15.162Z,100817.28
2022-12-26T15:52:56.238Z,100799.28
2022-12-26T15:55:22.661Z,100811.84
2022-12-26T15:57:58.271Z,100807.44
2022-12-26T16:00:26.593Z,100802.84
2022-12-26T16:03:05.196Z,100807.44
2022-12-26T16:05:50.293Z,100793.81
2022-12-26T16:08:25.893Z,100797.41
2022-12-26T16:11:10.722Z,100800.13
2022-12-26T16:13:48.296Z,100809.28
2022-12-26T16:16:23.116Z,100803.84
2022-12-26T16:18:49.500Z,100807.44
2022-12-26T16:21:35.619Z,100811.84
2022-12-26T16:24:02.550Z,100814.56
2022-12-26T16:26:30.180Z,100819.19
2022-12-26T16:28:58.622Z,100827.34
2022-12-26T16:31:26.187Z,100813.72
2022-12-26T16:33:53.612Z,100823.78
2022-12-26T16:36:22.029Z,100832.78
2022-12-26T16:38:49.451Z,100830.91
2022-12-26T16:41:19.246Z,100837.19
2022-12-26T16:43:45.966Z,100831.75
2022-12-26T16:46:13.074Z,100848.09
2022-12-26T16:48:40.077Z,100847.25
2022-12-26T16:51:08.748Z,100848.28
2022-12-26T16:53:35.156Z,100853.72
2022-12-26T16:56:17.647Z,100856.44
2022-12-26T16:58:44.489Z,100867.34
2022-12-26T17:01:12.744Z,100864.63
2022-12-26T17:03:56.153Z,100863.75
2022-12-26T17:06:27.777Z,100867.34
2022-12-26T17:08:54.764Z,100868.19
2022-12-26T17:11:28.911Z,100855.56
2022-12-26T17:13:55.682Z,100865.47
2022-12-26T17:16:25.771Z,100858.97
2022-12-26T17:18:53.444Z,100879.06
2022-12-26T17:21:21.722Z,100875.31
2022-12-26T17:24:17.840Z,100880.75
2022-12-26T17:26:44.436Z,100879.91
2022-12-26T17:29:29.647Z,100878.03
2022-12-26T17:31:56.278Z,100867.34
2022-12-26T17:34:26.583Z,100878.22
2022-12-26T17:37:18.275Z,100880.75
2022-12-26T17:39:40.276Z,100885.38
2022-12-26T17:42:06.754Z,100889.13
2022-12-26T17:44:43.470Z,100892.50
2022-12-26T17:47:18.093Z,100894.56
2022-12-26T17:49:44.773Z,100896.25
2022-12-26T17:52:12.413Z,100900.84
2022-12-26T17:54:39.144Z,100896.25
2022-12-26T17:57:05.591Z,100902.72
2022-12-26T17:59:31.992Z,100895.41
2022-12-26T18:01:58.493Z,100910.03
2022-12-26T18:04:24.981Z,100897.28
2022-12-26T18:06:51.428Z,100894.56
2022-12-26T18:09:25.871Z,100901.69
2022-12-26T18:11:52.692Z,100905.44
2022-12-26T18:14:19.352Z,100904.41
2022-12-26T18:16:46.777Z,100896.25
2022-12-26T18:19:17.377Z,100916.16
2022-12-26T18:21:43.864Z,100915.31
2022-12-26T18:24:10.413Z,100924.50
2022-12-26T18:26:36.803Z,100924.31
2022-12-26T18:29:03.659Z,100930.59
2022-12-26T18:31:31.183Z,100945.25
2022-12-26T18:33:57.836Z,100947.97
2022-12-26T18:36:28.335Z,100948.81
2022-12-26T18:38:54.681Z,100954.28
2022-12-26T18:41:21.186Z,100950.69
2022-12-26T18:43:47.837Z,100962.44
2022-12-26T18:46:17.898Z,100964.13
2022-12-26T18:48:44.414Z,100959.72
2022-12-26T18:51:10.814Z,100969.75
2022-12-26T18:53:37.221Z,100955.31
2022-12-26T18:56:03.977Z,100972.28
2022-12-26T18:58:30.404Z,100975.00
2022-12-26T19:00:56.838Z,100982.34
2022-12-26T19:03:23.312Z,100986.09
2022-12-26T19:05:49.831Z,100989.66
2022-12-26T19:08:16.240Z,101010.59
2022-12-26T19:10:44.596Z,101020.47
2022-12-26T19:13:11.034Z,101017.75
2022-12-26T19:15:37.412Z,101028.63
2022-12-26T19:18:04.753Z,101028.63
2022-12-26T19:20:31.387Z,101049.38
2022-12-26T19:22:57.884Z,101053.13
2022-12-26T19:25:25.012Z,101057.53
2022-12-26T19:27:51.467Z,101069.47
2022-12-26T19:30:18.655Z,101071.16
2022-12-26T19:32:45.519Z,101082.06
2022-12-26T19:35:12.140Z,101076.59
2022-12-26T19:37:38.501Z,101077.63
2022-12-26T19:40:05.597Z,101073.03
2022-12-26T19:42:34.601Z,101078.47
2022-12-26T19:45:01.415Z,101088.34
2022-12-26T19:47:27.879Z,101118.47
2022-12-26T19:49:54.291Z,101124.78
2022-12-26T19:52:20.715Z,101107.59
2022-12-26T19:54:47.146Z,101094.81
2022-12-26T19:57:13.545Z,101103.00
2022-12-26T19:59:39.979Z,101121.88
2022-12-26T20:02:06.568Z,101120.34
2022-12-26T20:04:33.095Z,101135.50
2022-12-26T20:07:00.474Z,101141.09
2022-12-26T20:09:26.888Z,101141.94
2022-12-26T20:11:56.251Z,101150.31
2022-12-26T20:14:23.639Z,101154.72
2022-12-26T20:17:09.164Z,101157.44
2022-12-26T20:19:36.596Z,101159.13
2022-12-26T20:22:03.599Z,101168.34
2022-12-26T20:24:30.008Z,101163.75
2022-12-26T20:26:56.434Z,101162.88
2022-12-26T20:29:22.859Z,101164.78
2022-12-26T20:31:49.645Z,101168.34
2022-12-26T20:34:16.239Z,101181.09
2022-12-26T20:36:42.661Z,101178.38
2022-12-26T20:39:12.319Z,101181.94
2022-12-26T20:41:38.798Z,101172.94
2022-12-26T20:44:05.275Z,101184.69
2022-12-26T20:46:33.023Z,101182.97
2022-12-26T20:48:59.791Z,101180.25
2022-12-26T20:51:31.744Z,101182.97
2022-12-26T20:54:02.741Z,101187.59
2022-12-26T20:56:29.201Z,101181.28
2022-12-26T20:58:56.795Z,101192.19
2022-12-26T21:01:23.468Z,101186.75
2022-12-26T21:03:52.005Z,101192.19
2022-12-26T21:06:20.150Z,101198.47
2022-12-26T21:08:47.466Z,101201.19
2022-12-26T21:11:24.880Z,101205.81
2022-12-26T21:13:52.381Z,101211.25
2022-12-26T21:16:23.422Z,101221.09
2022-12-26T21:18:50.138Z,101219.41
2022-12-26T21:21:18.527Z,101213.97
2022-12-26T21:23:45.037Z,101220.25
2022-12-26T21:26:11.549Z,101203.06
2022-12-26T21:28:38.312Z,101214.81
2022-12-26T21:31:06.295Z,101224.66
2022-12-26T21:33:32.920Z,101224.84
2022-12-26T21:35:59.300Z,101233.03
2022-12-26T21:38:28.164Z,101232.19
2022-12-26T21:40:54.918Z,101241.19
2022-12-26T21:43:22.430Z,101246.47
2022-12-26T21:45:48.903Z,101252.94
2022-12-26T21:48:15.931Z,101261.94
2022-12-26T21:50:45.195Z,101260.91
2022-12-26T21:53:11.556Z,101258.19
2022-12-26T21:55:38.811Z,101267.38
2022-12-26T21:58:07.504Z,101269.28
2022-12-26T22:00:35.402Z,101273.69
2022-12-26T22:03:21.088Z,101291.06
2022-12-26T22:05:47.564Z,101291.91
2022-12-26T22:08:13.961Z,101301.09
2022-12-26T22:11:01.712Z,101307.41
2022-12-26T22:13:28.424Z,101310.13
2022-12-26T22:16:05.345Z,101310.97
2022-12-26T22:18:31.840Z,101309.28
2022-12-26T22:21:18.053Z,101308.25
2022-12-26T22:23:44.696Z,101319.31
2022-12-26T22:26:12.499Z,101312.84
2022-12-26T22:28:39.088Z,101328.31
2022-12-26T22:31:06.118Z,101334.63
2022-12-26T22:33:32.642Z,101321.16
2022-12-26T22:36:09.501Z,101331.06
2022-12-26T22:38:36.675Z,101330.19
2022-12-26T22:41:03.834Z,101337.34
2022-12-26T22:43:30.818Z,101345.50
2022-12-26T22:45:57.297Z,101359.13
2022-12-26T22:48:23.969Z,101374.63
2022-12-26T22:50:54.425Z,101373.59
2022-12-26T22:53:27.753Z,101375.63
2022-12-26T22:56:05.173Z,101381.94
2022-12-26T22:58:32.435Z,101387.38
2022-12-26T23:00:59.186Z,101387.38
2022-12-26T23:03:26.250Z,101396.41
2022-12-26T23:05:53.292Z,101393.69
2022-12-26T23:08:26.894Z,101395.56
2022-12-26T23:10:54.525Z,101397.25
2022-12-26T23:13:21.102Z,101408.13
2022-12-26T23:15:50.850Z,101403.72
2022-12-26T23:18:49.409Z,101410.00
2022-12-26T23:21:42.316Z,101413.72
2022-12-26T23:24:08.738Z,101422.78
2022-12-26T23:26:35.202Z,101414.72
2022-12-26T23:29:20.317Z,101423.63
2022-12-26T23:31:46.755Z,101420.91
2022-12-26T23:34:13.193Z,101424.47
2022-12-26T23:36:39.655Z,101419.19
2022-12-26T23:39:06.072Z,101420.91
2022-12-26T23:41:32.652Z,101417.34
2022-12-26T23:43:59.002Z,101410.00
2022-12-26T23:46:25.387Z,101423.63
2022-12-26T23:48:51.833Z,101419.03
2022-12-26T23:51:18.180Z,101424.47
2022-12-26T23:53:44.591Z,101406.44
2022-12-26T23:56:11.034Z,101411.91
2022-12-26T23:58:39.926Z,101417.16
